Time;durP1;ratioP1;P1;durP2;ratioP2;P2;SDS_P1;SDS_P2;PMS_P1;PMS_P2;Temp;Humidity;BMP_temperature;BMP_pressure;BME280_temperature;BME280_humidity;BME280_pressure;Samples;Min_cycle;Max_cycle;Signal;HPM_P1;HPM_P2
2023/04/04 00:00:38;;;;;;;10.63;5.43;;;;;;;7.21;82.15;101913.84;4989527;28;20591;-51
2023/04/04 00:03:05;;;;;;;16.33;6.50;;;;;;;7.20;82.54;101910.25;4990164;28;20042;-47
2023/04/04 00:05:34;;;;;;;15.02;6.53;;;;;;;7.15;82.61;101902.06;4990040;28;20238;-55
2023/04/04 00:08:02;;;;;;;9.75;6.05;;;;;;;7.11;82.84;101906.53;4989799;28;20121;-49
2023/04/04 00:10:29;;;;;;;11.30;6.60;;;;;;;7.10;83.09;101904.06;4989581;28;20046;-55
2023/04/04 00:12:56;;;;;;;12.27;4.57;;;;;;;7.08;82.97;101907.13;4989952;28;20548;-49
2023/04/04 00:15:22;;;;;;;10.35;4.38;;;;;;;7.03;82.93;101900.84;4972695;28;20069;-53
2023/04/04 00:17:49;;;;;;;9.05;3.35;;;;;;;7.04;83.05;101899.75;4989764;28;20512;-48
2023/04/04 00:20:16;;;;;;;9.45;2.92;;;;;;;7.04;82.86;101897.00;4989974;28;20069;-46
2023/04/04 00:22:43;;;;;;;6.80;2.97;;;;;;;7.04;83.01;101899.75;4989919;28;20233;-47
2023/04/04 00:25:11;;;;;;;10.63;2.35;;;;;;;7.03;82.58;101893.41;4989693;28;20100;-50
2023/04/04 00:27:37;;;;;;;12.27;3.10;;;;;;;7.05;82.53;101896.69;4989664;28;20050;-48
2023/04/04 00:30:05;;;;;;;9.10;2.38;;;;;;;7.06;82.21;101892.00;4989470;28;20057;-47
2023/04/04 00:32:32;;;;;;;3.92;2.50;;;;;;;7.09;82.03;101896.94;4990022;28;20489;-49
2023/04/04 00:34:59;;;;;;;5.03;2.15;;;;;;;7.09;81.78;101888.66;4989815;28;20073;-53
2023/04/04 00:37:26;;;;;;;11.63;1.42;;;;;;;7.12;81.62;101894.38;4989939;28;20133;-47
2023/04/04 00:39:53;;;;;;;7.07;1.95;;;;;;;7.15;81.32;101890.22;4972246;28;20401;-47
2023/04/04 00:42:20;;;;;;;5.43;2.10;;;;;;;7.15;81.39;101890.22;4989345;28;20535;-48
2023/04/04 00:44:47;;;;;;;6.72;1.67;;;;;;;7.17;80.96;101885.25;4989579;28;20097;-47
2023/04/04 00:47:14;;;;;;;9.32;2.72;;;;;;;7.19;81.08;101885.78;4989484;28;20038;-47
2023/04/04 00:49:41;;;;;;;7.63;2.35;;;;;;;7.20;80.67;101887.44;4989974;28;20062;-47
2023/04/04 00:52:07;;;;;;;4.97;1.90;;;;;;;7.19;80.65;101877.53;4972474;28;20050;-46
2023/04/04 00:54:34;;;;;;;8.05;2.42;;;;;;;7.20;80.70;101877.22;4989403;28;20047;-48
2023/04/04 00:57:03;;;;;;;7.53;2.28;;;;;;;7.21;80.58;101881.63;4989044;28;20050;-46
2023/04/04 00:59:30;;;;;;;7.18;2.25;;;;;;;7.21;80.68;101878.03;4989390;28;20034;-49
2023/04/04 01:01:59;;;;;;;10.65;2.38;;;;;;;7.23;80.74;101870.28;4988188;28;20086;-52
2023/04/04 01:04:28;;;;;;;8.82;2.30;;;;;;;7.25;80.62;101870.84;4987578;28;20038;-47
2023/04/04 01:06:55;;;;;;;5.13;2.83;;;;;;;7.26;80.69;101869.72;5000871;28;20057;-47
2023/04/04 01:09:22;;;;;;;4.00;2.05;;;;;;;7.27;80.58;101871.34;4994580;28;20598;-48
2023/04/04 01:11:49;;;;;;;10.85;2.67;;;;;;;7.27;80.79;101876.88;4993299;28;20050;-47
2023/04/04 01:14:16;;;;;;;9.93;3.53;;;;;;;7.29;80.87;101866.38;4993507;28;20049;-46
2023/04/04 01:16:44;;;;;;;9.02;2.10;;;;;;;7.29;80.69;101874.63;4993322;28;20149;-48
2023/04/04 01:19:21;;;;;;;7.95;2.63;;;;;;;7.28;80.68;101867.50;4975581;28;20492;-47
2023/04/04 01:21:48;;;;;;;6.53;2.47;;;;;;;7.27;80.69;101866.69;4993131;28;20054;-47
2023/04/04 01:24:16;;;;;;;8.32;2.08;;;;;;;7.25;80.53;101860.63;4993764;28;20049;-47
2023/04/04 01:26:43;;;;;;;9.90;2.88;;;;;;;7.26;80.74;101861.44;4993384;28;20046;-47
2023/04/04 01:29:10;;;;;;;8.50;2.72;;;;;;;7.25;80.70;101859.81;4993272;28;20042;-47
2023/04/04 01:31:40;;;;;;;5.43;2.20;;;;;;;7.23;80.66;101851.00;4992928;28;20061;-51
2023/04/04 01:34:07;;;;;;;10.52;3.00;;;;;;;7.21;80.72;101861.50;4975789;28;20057;-48
2023/04/04 01:36:52;;;;;;;6.30;2.17;;;;;;;7.20;80.82;101859.91;4991488;28;20097;-47
2023/04/04 01:39:27;;;;;;;5.30;2.67;;;;;;;7.19;80.91;101848.06;4993270;28;20054;-47
2023/04/04 01:41:57;;;;;;;7.15;2.38;;;;;;;7.16;80.61;101848.63;4993654;28;20038;-47
2023/04/04 01:44:25;;;;;;;9.40;2.60;;;;;;;7.16;80.54;101847.81;4992816;28;20519;-47
2023/04/04 01:46:55;;;;;;;9.93;4.40;;;;;;;7.16;80.77;101847.81;4992835;28;20046;-54
2023/04/04 01:49:22;;;;;;;7.00;2.13;;;;;;;7.15;80.63;101837.91;4992548;28;20157;-53
2023/04/04 01:51:51;;;;;;;10.85;2.45;;;;;;;7.14;80.85;101837.09;4992936;28;20061;-50
2023/04/04 01:54:18;;;;;;;8.75;3.10;;;;;;;7.15;80.52;101843.41;4992938;28;20046;-46
2023/04/04 01:56:45;;;;;;;8.60;3.40;;;;;;;7.13;80.45;101834.63;4993409;28;20050;-46
2023/04/04 01:59:12;;;;;;;4.15;2.30;;;;;;;7.07;80.36;101835.84;4992179;28;20549;-49
2023/04/04 02:01:38;;;;;;;9.07;2.58;;;;;;;7.08;80.73;101834.69;4992397;28;20062;-50
2023/04/04 02:04:06;;;;;;;6.85;2.25;;;;;;;7.07;80.40;101827.56;4992185;28;20050;-47
2023/04/04 02:06:32;;;;;;;7.47;3.67;;;;;;;7.09;80.60;101822.59;4992309;28;20050;-48
2023/04/04 02:08:59;;;;;;;6.18;2.22;;;;;;;7.08;80.34;101826.44;4992526;28;20050;-49
2023/04/04 02:11:26;;;;;;;5.35;2.33;;;;;;;7.08;80.67;101829.19;4992167;28;20042;-48
2023/04/04 02:13:53;;;;;;;4.93;2.20;;;;;;;7.09;80.68;101825.34;4992535;28;20053;-48
2023/04/04 02:16:20;;;;;;;7.65;2.20;;;;;;;7.08;80.84;101826.44;4992120;28;20057;-50
2023/04/04 02:18:47;;;;;;;9.65;3.80;;;;;;;7.08;80.81;101826.44;4991729;28;20134;-47
2023/04/04 02:21:13;;;;;;;4.88;2.17;;;;;;;7.08;80.92;101829.19;4991434;28;20050;-51
2023/04/04 02:23:40;;;;;;;5.32;2.20;;;;;;;7.06;80.95;101832.25;4992093;28;20054;-47
2023/04/04 02:26:07;;;;;;;8.80;2.45;;;;;;;7.03;80.82;101829.25;4991948;28;20053;-46
2023/04/04 02:28:33;;;;;;;9.02;2.88;;;;;;;7.04;81.14;101823.44;4991577;28;20150;-56
2023/04/04 02:31:01;;;;;;;7.18;2.60;;;;;;;7.04;81.16;101817.94;4992225;28;20117;-53
2023/04/04 02:33:28;;;;;;;7.75;2.05;;;;;;;7.03;81.13;101815.50;4990168;28;20042;-48
2023/04/04 02:35:57;;;;;;;6.47;2.30;;;;;;;7.04;81.10;101812.44;4964252;28;20056;-48
2023/04/04 02:38:25;;;;;;;7.70;2.78;;;;;;;7.03;81.04;101821.00;4991547;28;20493;-51
2023/04/04 02:40:52;;;;;;;7.88;3.20;;;;;;;7.03;81.55;101815.50;4974169;28;20499;-48
2023/04/04 02:43:18;;;;;;;6.68;2.65;;;;;;;7.04;81.40;101811.63;4991821;28;20046;-48
2023/04/04 02:45:48;;;;;;;5.95;2.80;;;;;;;7.06;81.49;101820.41;4991635;28;20564;-49
2023/04/04 02:48:15;;;;;;;8.32;2.70;;;;;;;7.06;81.61;101815.72;4991543;28;20611;-49
2023/04/04 02:50:42;;;;;;;8.80;2.75;;;;;;;7.06;81.59;101809.41;4991394;28;20082;-49
2023/04/04 02:53:09;;;;;;;7.80;4.40;;;;;;;7.05;81.83;101825.09;4991404;28;20074;-51
2023/04/04 02:55:36;;;;;;;10.02;4.47;;;;;;;7.03;82.30;101818.25;4991746;28;20065;-48
2023/04/04 02:58:02;;;;;;;11.40;3.92;;;;;;;7.03;82.36;101816.31;4990833;28;20061;-47
2023/04/04 03:00:36;;;;;;;12.63;2.65;;;;;;;7.04;82.48;101806.13;5081678;23;20081;-48
2023/04/04 03:03:04;;;;;;;5.53;2.38;;;;;;;7.03;82.39;101815.50;5018853;28;20050;-48
2023/04/04 03:05:31;;;;;;;6.55;2.40;;;;;;;7.03;82.89;101815.50;5010953;28;20537;-48
2023/04/04 03:07:58;;;;;;;6.38;2.75;;;;;;;7.00;82.79;101810.56;5011033;28;20050;-48
2023/04/04 03:10:28;;;;;;;8.35;2.55;;;;;;;6.95;82.83;101814.22;5010940;28;20511;-53
2023/04/04 03:12:56;;;;;;;6.00;2.28;;;;;;;6.92;82.98;101808.47;4997885;28;20061;-49
2023/04/04 03:15:23;;;;;;;6.00;2.55;;;;;;;6.95;83.02;101810.66;5010258;28;20508;-55
2023/04/04 03:17:50;;;;;;;4.05;2.75;;;;;;;6.92;nan;101803.78;4999012;28;20042;-54
2023/04/04 03:20:17;;;;;;;12.65;3.28;;;;;;;6.93;83.01;101801.88;5010815;28;20036;-48
2023/04/04 03:22:44;;;;;;;5.45;2.70;;;;;;;6.91;83.05;101801.34;5010332;28;20050;-49
2023/04/04 03:25:11;;;;;;;7.05;2.67;;;;;;;6.90;83.11;101789.50;5010391;28;20061;-48
2023/04/04 03:27:38;;;;;;;9.20;4.97;;;;;;;6.91;82.88;101801.34;5010537;28;20042;-47
2023/04/04 03:30:07;;;;;;;13.40;4.00;;;;;;;6.88;82.74;101791.75;5010621;28;20056;-48
2023/04/04 03:32:35;;;;;;;4.80;2.90;;;;;;;6.91;82.78;101793.09;5010276;28;20265;-48
2023/04/04 03:35:02;;;;;;;10.20;4.32;;;;;;;6.92;82.81;101792.78;5010036;28;20045;-49
2023/04/04 03:37:29;;;;;;;8.82;3.47;;;;;;;6.93;82.54;101793.59;5010196;28;20127;-48
2023/04/04 03:39:57;;;;;;;9.30;4.28;;;;;;;6.95;82.46;101791.38;5009963;28;20389;-50
2023/04/04 03:42:24;;;;;;;15.93;4.90;;;;;;;6.96;82.39;101787.50;5010621;28;20468;-49
2023/04/04 03:44:55;;;;;;;9.82;3.60;;;;;;;6.94;82.21;101789.72;5009728;28;20076;-53
2023/04/04 03:47:21;;;;;;;10.98;4.28;;;;;;;6.96;82.40;101776.50;5010278;28;20060;-48
2023/04/04 03:49:50;;;;;;;13.50;5.45;;;;;;;6.98;82.30;101771.50;4992191;28;20072;-49
2023/04/04 03:52:17;;;;;;;7.05;3.75;;;;;;;6.98;82.15;101779.78;5009786;28;20446;-49
2023/04/04 03:54:44;;;;;;;15.70;4.45;;;;;;;6.99;82.09;101778.66;5010104;28;20041;-50
2023/04/04 03:57:11;;;;;;;8.20;3.40;;;;;;;7.00;82.10;101772.03;5009840;28;20416;-48
2023/04/04 03:59:38;;;;;;;11.63;4.32;;;;;;;7.01;82.10;101769.00;5009379;28;20056;-48
2023/04/04 04:02:05;;;;;;;8.23;4.00;;;;;;;7.02;82.16;101770.63;5009694;28;20060;-47
2023/04/04 04:04:32;;;;;;;7.05;3.75;;;;;;;7.03;82.10;101775.03;5009515;28;20050;-48
2023/04/04 04:06:59;;;;;;;9.45;3.22;;;;;;;7.03;81.97;101771.44;5009853;28;20081;-50
2023/04/04 04:09:26;;;;;;;9.00;4.40;;;;;;;7.03;82.06;101769.50;5008661;28;20057;-51
2023/04/04 04:11:53;;;;;;;11.27;4.25;;;;;;;7.05;82.10;101774.72;5009170;28;20038;-50
2023/04/04 04:14:19;;;;;;;8.85;4.13;;;;;;;7.06;82.11;101765.34;5009379;28;20404;-48
2023/04/04 04:16:46;;;;;;;10.35;4.57;;;;;;;7.05;82.19;101769.19;5009649;28;20046;-47
2023/04/04 04:19:13;;;;;;;11.88;3.67;;;;;;;7.05;82.28;101774.72;5009826;28;20565;-49
2023/04/04 04:21:41;;;;;;;7.03;3.40;;;;;;;7.06;82.32;101776.38;5009785;28;20419;-47
2023/04/04 04:24:08;;;;;;;10.80;5.18;;;;;;;7.06;82.25;101768.91;5009382;28;20050;-48
2023/04/04 04:26:35;;;;;;;10.93;3.58;;;;;;;7.09;82.49;101773.03;5009291;28;20080;-50
2023/04/04 04:29:02;;;;;;;5.68;4.07;;;;;;;7.10;82.50;101777.38;5009384;28;20038;-49
2023/04/04 04:31:28;;;;;;;7.72;3.88;;;;;;;7.09;82.66;101762.81;5009284;28;20069;-54
2023/04/04 04:33:55;;;;;;;8.02;4.82;;;;;;;7.09;82.81;101756.50;5010052;28;20041;-48
2023/04/04 04:36:22;;;;;;;11.70;4.25;;;;;;;7.11;82.78;101771.59;4991544;28;20411;-47
2023/04/04 04:38:49;;;;;;;8.52;4.53;;;;;;;7.13;82.85;101777.63;5009129;28;20085;-49
2023/04/04 04:41:16;;;;;;;11.23;4.38;;;;;;;7.18;82.77;101762.97;5009284;28;20045;-47
2023/04/04 04:43:42;;;;;;;12.20;4.82;;;;;;;7.18;82.49;101751.94;5008429;28;20081;-47
2023/04/04 04:46:09;;;;;;;7.85;4.45;;;;;;;7.17;82.98;101734.63;5009017;28;20492;-48
2023/04/04 04:48:36;;;;;;;8.50;4.38;;;;;;;7.19;82.88;101743.41;5008910;28;20073;-50
2023/04/04 04:51:03;;;;;;;6.85;4.40;;;;;;;7.22;82.88;101731.78;5009061;28;20045;-50
2023/04/04 04:53:30;;;;;;;11.15;4.30;;;;;;;7.23;82.89;101732.59;5009252;28;20050;-54
2023/04/04 04:55:56;;;;;;;10.88;4.45;;;;;;;7.24;82.88;101739.75;5009377;28;20137;-47
2023/04/04 04:58:23;;;;;;;7.90;4.07;;;;;;;7.23;82.97;101744.44;5009289;28;20050;-47
2023/04/04 05:00:56;;;;;;;8.73;4.10;;;;;;;7.23;83.13;101749.09;5008486;28;20046;-48
2023/04/04 05:03:23;;;;;;;12.45;4.82;;;;;;;7.24;83.14;101748.81;4991399;28;20542;-49
2023/04/04 05:05:50;;;;;;;9.73;3.60;;;;;;;7.23;83.12;101746.34;5008941;28;20054;-47
2023/04/04 05:08:17;;;;;;;7.95;4.18;;;;;;;7.23;83.24;101743.59;5009150;28;20069;-48
2023/04/04 05:10:44;;;;;;;11.35;3.67;;;;;;;7.23;83.25;101751.88;5009112;28;20045;-48
2023/04/04 05:13:11;;;;;;;9.65;4.15;;;;;;;7.24;83.57;101739.75;5009010;28;20046;-48
2023/04/04 05:15:38;;;;;;;10.07;4.03;;;;;;;7.24;83.32;101739.75;5008692;28;20141;-49
2023/04/04 05:18:04;;;;;;;10.00;3.42;;;;;;;7.24;83.45;101754.34;5009056;28;20073;-48
2023/04/04 05:20:32;;;;;;;6.55;3.55;;;;;;;7.24;83.71;101746.06;5008766;28;20050;-54
2023/04/04 05:22:58;;;;;;;4.65;3.88;;;;;;;7.24;83.57;101739.75;5008889;28;20037;-51
2023/04/04 05:25:26;;;;;;;11.23;3.90;;;;;;;7.24;83.71;101736.97;4991295;28;20128;-47
2023/04/04 05:27:57;;;;;;;;;;;;;;;7.22;83.77;101740.06;4992703;28;20116;-52
2023/04/04 05:30:24;;;;;;;7.50;3.70;;;;;;;7.22;83.66;101736.47;4991370;28;19925;-48
2023/04/04 05:32:51;;;;;;;11.77;4.35;;;;;;;7.23;83.71;101732.59;5008664;28;20089;-47
2023/04/04 05:35:18;;;;;;;13.90;5.60;;;;;;;7.25;83.77;101730.38;5008649;28;20567;-50
2023/04/04 05:37:45;;;;;;;21.00;6.72;;;;;;;7.25;83.98;101724.88;5007192;28;20045;-50
2023/04/04 05:40:12;;;;;;;8.98;5.05;;;;;;;7.24;83.88;101734.22;5005133;28;20042;-47
2023/04/04 05:42:38;;;;;;;9.43;5.32;;;;;;;7.22;83.91;101726.28;5008598;28;20627;-53
2023/04/04 05:45:06;;;;;;;8.73;4.55;;;;;;;7.24;83.85;101724.03;5008435;28;20042;-48
2023/04/04 05:47:32;;;;;;;12.75;4.97;;;;;;;7.24;83.98;101726.78;5008286;28;20077;-48
2023/04/04 05:49:59;;;;;;;10.45;5.00;;;;;;;7.24;83.73;101735.06;5008882;28;20042;-50
2023/04/04 05:52:26;;;;;;;13.15;5.55;;;;;;;7.27;83.70;101739.97;5008621;28;20045;-47
2023/04/04 05:54:53;;;;;;;9.02;5.72;;;;;;;7.28;83.63;101738.03;5011097;28;20046;-54
2023/04/04 05:57:20;;;;;;;11.50;4.97;;;;;;;7.28;83.59;101744.34;4994416;28;20483;-50
2023/04/04 05:59:48;;;;;;;12.07;5.05;;;;;;;7.30;83.42;101735.81;5011783;28;20484;-49
2023/04/04 06:02:16;;;;;;;10.13;4.50;;;;;;;7.30;83.37;101731.13;5012074;28;20060;-52
2023/04/04 06:04:44;;;;;;;10.80;4.47;;;;;;;7.31;83.55;101734.66;5012137;28;20070;-50
2023/04/04 06:07:11;;;;;;;11.05;4.43;;;;;;;7.32;83.55;101736.31;5011794;28;20041;-49
2023/04/04 06:09:37;;;;;;;10.52;4.65;;;;;;;7.31;83.64;101740.16;4994526;28;20097;-48
2023/04/04 06:12:04;;;;;;;9.60;4.43;;;;;;;7.32;83.46;101752.84;5011892;28;20045;-51
2023/04/04 06:14:31;;;;;;;8.15;3.50;;;;;;;7.31;83.50;101753.94;5012217;28;20786;-50
2023/04/04 06:16:58;;;;;;;10.05;3.40;;;;;;;7.30;83.58;101744.88;4994043;28;20056;-48
2023/04/04 06:19:25;;;;;;;6.50;3.92;;;;;;;7.32;83.71;101758.34;5011716;28;20045;-49
2023/04/04 06:21:52;;;;;;;7.30;3.78;;;;;;;7.35;83.82;101757.75;4999057;28;20092;-48
2023/04/04 06:24:19;;;;;;;9.52;3.40;;;;;;;7.34;83.76;101759.69;5011525;28;20057;-47
2023/04/04 06:26:50;;;;;;;10.07;3.33;;;;;;;7.34;83.77;101758.84;4994546;28;20061;-48
2023/04/04 06:29:17;;;;;;;7.90;3.70;;;;;;;7.33;83.80;101760.00;5011673;28;20088;-48
2023/04/04 06:31:44;;;;;;;6.03;3.35;;;;;;;7.33;83.99;101762.75;5012087;28;20407;-47
2023/04/04 06:34:11;;;;;;;6.00;3.55;;;;;;;7.33;84.03;101771.81;5011651;28;20125;-50
2023/04/04 06:36:37;;;;;;;12.57;4.97;;;;;;;7.34;84.04;101767.13;5011190;28;20045;-48
2023/04/04 06:39:04;;;;;;;9.07;3.92;;;;;;;7.37;84.04;101772.03;5011712;28;20077;-49
2023/04/04 06:41:31;;;;;;;14.45;6.20;;;;;;;7.39;84.05;101772.56;5011123;28;20048;-54
2023/04/04 06:43:57;;;;;;;9.13;4.28;;;;;;;7.41;84.24;101780.53;5010954;28;20057;-53
2023/04/04 06:46:25;;;;;;;11.02;4.55;;;;;;;7.42;84.13;101774.72;5010106;28;20045;-53
2023/04/04 06:48:53;;;;;;;14.07;4.70;;;;;;;7.44;84.20;101772.47;5011236;28;20049;-50
2023/04/04 06:51:22;;;;;;;20.85;8.57;;;;;;;7.46;84.39;101763.94;5011183;28;20495;-50
2023/04/04 06:53:49;;;;;;;15.10;5.70;;;;;;;7.46;84.17;101770.25;4993568;28;20045;-47
2023/04/04 06:56:15;;;;;;;13.48;4.63;;;;;;;7.48;84.41;101767.19;4993642;28;20061;-51
2023/04/04 06:58:42;;;;;;;10.85;4.35;;;;;;;7.48;84.50;101767.19;5011089;28;20463;-48
2023/04/04 07:01:09;;;;;;;7.25;4.00;;;;;;;7.50;84.73;101760.25;5011165;28;20054;-52
2023/04/04 07:03:36;;;;;;;18.17;7.95;;;;;;;7.53;84.55;101767.09;5011002;28;20061;-48
2023/04/04 07:06:05;;;;;;;25.27;10.50;;;;;;;7.54;84.66;101749.47;5010726;28;20396;-51
2023/04/04 07:08:32;;;;;;;32.42;10.65;;;;;;;7.56;84.68;101753.56;5010625;28;20096;-48
2023/04/04 07:11:02;;;;;;;29.83;9.35;;;;;;;7.59;84.89;101752.13;5010782;28;20041;-49
2023/04/04 07:13:28;;;;;;;29.00;8.50;;;;;;;7.60;84.89;101749.06;5010897;28;20419;-49
2023/04/04 07:15:55;;;;;;;16.95;5.65;;;;;;;7.62;84.98;101752.38;5010586;28;20038;-48
2023/04/04 07:18:22;;;;;;;19.50;6.35;;;;;;;7.64;85.08;101749.28;5006521;28;20287;-49
2023/04/04 07:20:49;;;;;;;22.58;8.63;;;;;;;7.67;85.29;101741.25;5009914;28;20519;-48
2023/04/04 07:23:16;;;;;;;25.73;8.55;;;;;;;7.73;85.31;101753.00;5010571;28;20563;-51
2023/04/04 07:25:43;;;;;;;28.00;9.60;;;;;;;7.78;85.29;101756.47;5010584;28;20084;-47
2023/04/04 07:28:10;;;;;;;38.40;11.23;;;;;;;7.83;85.43;101763.84;5010786;28;20042;-49
2023/04/04 07:30:39;;;;;;;25.08;9.20;;;;;;;7.90;85.37;101756.00;5010440;28;20042;-49
2023/04/04 07:33:06;;;;;;;15.40;7.60;;;;;;;7.96;85.48;101750.13;5010562;28;20411;-48
2023/04/04 07:35:34;;;;;;;15.07;6.03;;;;;;;8.03;85.44;101752.47;5010546;28;20046;-48
2023/04/04 07:38:01;;;;;;;19.77;5.90;;;;;;;8.09;85.54;101750.44;5010021;28;20373;-47
2023/04/04 07:40:28;;;;;;;14.70;5.28;;;;;;;8.14;85.44;101750.34;5010039;28;20172;-49
2023/04/04 07:42:56;;;;;;;12.55;5.32;;;;;;;8.20;85.50;101746.38;4992832;28;20077;-51
2023/04/04 07:45:23;;;;;;;8.27;4.00;;;;;;;8.25;85.60;101737.97;5010094;28;20133;-47
2023/04/04 07:47:49;;;;;;;10.50;4.28;;;;;;;8.32;85.45;101721.88;5010015;28;20042;-46
2023/04/04 07:50:16;;;;;;;11.13;4.28;;;;;;;8.39;85.33;101722.28;5009855;28;20401;-47
2023/04/04 07:52:50;;;;;;;5.40;3.50;;;;;;;8.42;85.15;101727.16;5010315;28;20137;-51
2023/04/04 07:55:18;;;;;;;10.70;4.28;;;;;;;8.46;85.20;101723.50;5010131;28;20049;-48
2023/04/04 07:57:45;;;;;;;5.10;3.53;;;;;;;8.50;84.98;101718.19;5009754;28;20080;-49
2023/04/04 08:00:13;;;;;;;10.55;4.50;;;;;;;8.52;85.09;101715.94;5009574;28;20112;-46
2023/04/04 08:02:43;;;;;;;10.98;4.10;;;;;;;8.53;85.08;101717.56;5009221;28;20053;-48
2023/04/04 08:05:10;;;;;;;11.93;4.50;;;;;;;8.55;85.14;101720.84;5010151;28;20373;-49
2023/04/04 08:07:36;;;;;;;9.80;3.75;;;;;;;8.58;85.07;101711.94;5009593;28;20084;-48
2023/04/04 08:10:05;;;;;;;10.80;4.07;;;;;;;8.58;85.02;101714.69;5009469;28;20076;-47
2023/04/04 08:12:32;;;;;;;8.73;4.10;;;;;;;8.58;85.05;101709.19;5009430;28;20496;-48
2023/04/04 08:14:58;;;;;;;8.50;3.95;;;;;;;8.57;85.18;101710.31;5008202;28;20096;-55
2023/04/04 08:17:25;;;;;;;12.88;4.57;;;;;;;8.59;85.08;101716.34;4996191;28;20042;-52
2023/04/04 08:19:52;;;;;;;12.40;4.30;;;;;;;8.59;85.12;101713.59;5009404;28;20439;-47
2023/04/04 08:22:18;;;;;;;11.13;4.78;;;;;;;8.63;85.12;101700.00;5009184;28;20133;-48
2023/04/04 08:24:45;;;;;;;8.88;4.70;;;;;;;8.65;85.08;101686.69;5009124;28;20444;-46
2023/04/04 08:27:13;;;;;;;21.15;7.05;;;;;;;8.66;84.94;101694.66;5009278;28;20046;-52
2023/04/04 08:29:40;;;;;;;15.73;6.93;;;;;;;8.70;85.14;101701.22;5008952;28;20038;-49
2023/04/04 08:32:08;;;;;;;13.10;5.63;;;;;;;8.75;85.26;101706.63;5008980;28;20045;-46
2023/04/04 08:34:35;;;;;;;15.18;4.68;;;;;;;8.76;85.00;101694.44;5009368;28;20144;-46
2023/04/04 08:37:01;;;;;;;19.75;7.32;;;;;;;8.78;84.93;101689.44;5008844;28;20092;-47
2023/04/04 08:39:28;;;;;;;31.95;10.43;;;;;;;8.84;84.90;101687.38;5009540;28;20057;-47
2023/04/04 08:42:06;;;;;;;29.67;11.25;;;;;;;8.92;84.97;101687.44;4991342;28;20076;-48
2023/04/04 08:44:34;;;;;;;18.48;7.28;;;;;;;9.07;84.91;101689.88;5008590;28;20119;-46
2023/04/04 08:47:07;;;;;;;9.77;5.35;;;;;;;9.26;84.61;101694.41;4996391;28;20077;-46
2023/04/04 08:49:37;;;;;;;15.23;3.90;;;;;;;9.43;84.44;101700.84;5009135;28;20045;-52
2023/04/04 08:52:06;;;;;;;10.38;4.53;;;;;;;9.53;84.26;101702.56;5008998;28;20522;-47
2023/04/04 08:54:34;;;;;;;12.43;4.22;;;;;;;9.61;84.16;101699.06;5009272;28;20053;-50
2023/04/04 08:57:01;;;;;;;13.25;4.20;;;;;;;9.66;83.89;101693.38;5008350;28;20132;-47
2023/04/04 08:59:28;;;;;;;5.97;3.70;;;;;;;9.71;84.08;101683.00;5008837;28;20049;-47
2023/04/04 09:02:13;;;;;;;10.02;4.53;;;;;;;9.75;83.99;101691.47;5008319;28;20058;-52
2023/04/04 09:04:42;;;;;;;7.30;3.97;;;;;;;9.75;83.78;101691.47;5009185;28;20132;-48
2023/04/04 09:07:21;;;;;;;6.38;3.35;;;;;;;9.73;83.71;101682.69;4993104;28;20041;-47
2023/04/04 09:09:49;;;;;;;6.95;3.05;;;;;;;9.71;83.66;101688.53;5008980;28;20042;-48
2023/04/04 09:12:17;;;;;;;9.00;3.38;;;;;;;9.70;83.47;101686.91;5008797;28;20420;-51
2023/04/04 09:14:46;;;;;;;6.72;3.20;;;;;;;9.71;83.31;101682.19;5007778;28;20518;-48
2023/04/04 09:17:13;;;;;;;10.82;3.50;;;;;;;9.75;83.52;101672.13;5009106;28;20052;-50
2023/04/04 09:19:39;;;;;;;6.18;3.22;;;;;;;9.79;83.24;101678.66;5008799;28;20060;-48
2023/04/04 09:22:08;;;;;;;8.57;3.92;;;;;;;9.81;82.99;101681.91;5008535;28;20418;-49
2023/04/04 09:24:39;;;;;;;7.63;3.20;;;;;;;9.84;82.69;101686.81;5008699;28;20085;-46
2023/04/04 09:27:10;;;;;;;10.32;4.22;;;;;;;9.85;82.42;101688.44;4980792;28;20154;-47
2023/04/04 09:29:38;;;;;;;8.55;2.90;;;;;;;9.89;82.22;101686.69;5011292;28;20061;-47
2023/04/04 09:32:09;;;;;;;7.35;3.03;;;;;;;9.99;82.12;101683.63;5012750;28;20100;-48
2023/04/04 09:34:36;;;;;;;7.78;3.08;;;;;;;10.08;81.78;101687.25;5012794;28;20048;-46
2023/04/04 09:37:05;;;;;;;6.47;2.78;;;;;;;10.17;81.57;101684.53;5012211;28;20053;-47
2023/04/04 09:39:33;;;;;;;4.68;2.25;;;;;;;10.26;81.39;101683.47;4995094;28;20049;-47
2023/04/04 09:42:00;;;;;;;8.45;2.78;;;;;;;10.33;81.06;101688.50;5012443;28;20492;-51
2023/04/04 09:44:32;;;;;;;5.50;2.60;;;;;;;10.40;80.71;101688.88;5012552;28;20046;-46
2023/04/04 09:47:24;;;;;;;6.80;3.13;;;;;;;10.49;80.69;101686.94;5012533;28;20129;-50
2023/04/04 09:50:00;;;;;;;3.30;2.25;;;;;;;10.57;80.29;101682.56;5012655;28;20113;-47
2023/04/04 09:52:32;;;;;;;5.22;2.55;;;;;;;10.63;79.94;101682.09;4994446;28;20048;-49
2023/04/04 09:55:00;;;;;;;8.10;2.63;;;;;;;10.72;79.57;101668.25;5001046;28;20122;-48
2023/04/04 09:57:33;;;;;;;11.95;4.43;;;;;;;10.91;79.21;101677.06;5000142;28;20085;-48
2023/04/04 10:00:08;;;;;;;9.85;3.10;;;;;;;11.06;78.76;101676.59;5010465;28;20125;-51
2023/04/04 10:02:45;;;;;;;7.88;3.38;;;;;;;11.12;78.31;101674.47;5010067;28;20385;-50
2023/04/04 10:05:13;;;;;;;8.25;3.08;;;;;;;11.08;78.09;101666.00;5007232;28;20046;-51
2023/04/04 10:07:42;;;;;;;7.88;2.85;;;;;;;11.07;78.03;101669.13;5011033;28;20141;-48
2023/04/04 10:10:09;;;;;;;6.65;2.30;;;;;;;11.05;77.71;101661.09;5009071;28;20141;-48
2023/04/04 10:12:37;;;;;;;9.13;2.72;;;;;;;11.04;77.18;101665.00;5009318;28;20116;-51
2023/04/04 10:15:04;;;;;;;7.78;3.70;;;;;;;11.02;77.20;101661.75;5005317;28;20108;-48
2023/04/04 10:17:39;;;;;;;9.20;3.83;;;;;;;11.00;77.23;101669.59;5002928;28;20141;-48
2023/04/04 10:20:08;;;;;;;11.48;3.70;;;;;;;10.98;76.91;101667.16;5005395;28;20049;-51
2023/04/04 10:22:36;;;;;;;12.40;3.25;;;;;;;10.98;76.68;101671.88;4989144;28;20053;-52
2023/04/04 10:25:04;;;;;;;10.48;4.30;;;;;;;10.95;76.67;101666.97;5004412;28;20041;-53
2023/04/04 10:27:33;;;;;;;11.30;3.30;;;;;;;10.97;76.53;101673.00;5002424;28;20049;-49
2023/04/04 10:30:00;;;;;;;5.80;3.15;;;;;;;10.97;76.22;101670.22;5010948;28;20056;-48
2023/04/04 10:32:34;;;;;;;10.50;3.83;;;;;;;11.02;76.15;101672.84;5011447;28;20380;-51
2023/04/04 10:35:09;;;;;;;8.70;2.95;;;;;;;11.10;75.78;101672.03;5009145;28;20479;-48
2023/04/04 10:37:50;;;;;;;6.75;2.67;;;;;;;11.23;75.50;101673.00;5004041;28;20141;-47
2023/04/04 10:40:20;;;;;;;8.52;3.88;;;;;;;11.32;75.33;101674.63;5010595;28;20144;-48
2023/04/04 10:42:49;;;;;;;13.18;3.38;;;;;;;11.39;74.92;101663.84;5006969;28;20108;-48
2023/04/04 10:45:16;;;;;;;8.18;3.08;;;;;;;11.50;75.02;101665.16;5007928;28;20037;-48
2023/04/04 10:47:48;;;;;;;14.53;3.10;;;;;;;11.66;74.57;101659.88;5007625;28;20100;-49
2023/04/04 10:50:15;;;;;;;8.10;3.78;;;;;;;11.84;74.40;101663.44;5008571;28;20042;-52
2023/04/04 10:52:43;;;;;;;7.80;3.20;;;;;;;12.04;73.76;101680.22;5011135;28;20073;-50
2023/04/04 10:55:14;;;;;;;12.63;4.28;;;;;;;12.17;73.30;101670.84;5007758;28;20627;-47
2023/04/04 10:57:53;;;;;;;12.73;3.53;;;;;;;12.26;73.33;101670.00;5004123;28;20046;-48
2023/04/04 11:00:25;;;;;;;6.93;3.42;;;;;;;12.24;72.91;101664.75;5009942;28;20295;-51
2023/04/04 11:02:51;;;;;;;6.65;2.90;;;;;;;12.19;72.76;101670.50;5010903;28;20064;-49
2023/04/04 11:05:31;;;;;;;8.98;2.70;;;;;;;12.16;72.26;101673.94;5008192;28;20045;-50
2023/04/04 11:08:04;;;;;;;5.05;2.65;;;;;;;12.10;71.82;101650.28;5007868;28;20169;-51
2023/04/04 11:10:36;;;;;;;4.90;2.50;;;;;;;12.08;71.39;101658.13;5007057;28;20504;-49
2023/04/04 11:13:15;;;;;;;8.02;3.22;;;;;;;12.06;71.36;101652.94;5009660;28;20061;-51
2023/04/04 11:15:55;;;;;;;5.72;2.72;;;;;;;12.01;70.98;101649.53;5006239;28;20499;-51
2023/04/04 11:18:31;;;;;;;10.57;3.03;;;;;;;11.98;70.69;101652.97;5007494;28;20049;-48
2023/04/04 11:21:06;;;;;;;10.65;2.75;;;;;;;11.95;70.37;101659.16;4998682;28;20077;-48
2023/04/04 11:24:12;;;;;;;4.95;2.80;;;;;;;11.95;70.50;101651.66;5000181;28;20058;-51
2023/04/04 11:26:41;;;;;;;9.35;3.88;;;;;;;11.97;70.16;101637.44;5005926;28;20560;-51
2023/04/04 11:29:13;;;;;;;7.63;3.05;;;;;;;12.00;69.90;101647.88;5007181;28;20061;-49
2023/04/04 11:31:44;;;;;;;5.45;2.78;;;;;;;12.04;69.73;101644.13;5001468;28;20050;-48
2023/04/04 11:34:12;;;;;;;9.80;2.45;;;;;;;12.07;69.54;101626.00;5009028;28;20496;-50